sensor_id;sensor_type;location;lat;lon;timestamp;P1;durP1;ratioP1;P2;durP2;ratioP2
7410;SDS011;3747;48.628;9.058;2024-03-23T00:55:49;2.67;;;1.73;;
7410;SDS011;3747;48.628;9.058;2024-03-23T00:58:15;1.60;;;1.50;;
7410;SDS011;3747;48.628;9.058;2024-03-23T01:00:42;3.30;;;1.67;;
7410;SDS011;3747;48.628;9.058;2024-03-23T01:03:08;1.53;;;1.43;;
7410;SDS011;3747;48.628;9.058;2024-03-23T01:05:34;3.60;;;1.70;;
7410;SDS011;3747;48.628;9.058;2024-03-23T01:08:00;1.80;;;1.47;;
7410;SDS011;3747;48.628;9.058;2024-03-23T01:10:27;3.03;;;1.70;;
7410;SDS011;3747;48.628;9.058;2024-03-23T01:12:54;3.33;;;1.70;;
7410;SDS011;3747;48.628;9.058;2024-03-23T01:15:20;2.47;;;1.53;;
7410;SDS011;3747;48.628;9.058;2024-03-23T01:17:46;1.77;;;1.40;;
7410;SDS011;3747;48.628;9.058;2024-03-23T01:20:13;1.70;;;1.60;;
7410;SDS011;3747;48.628;9.058;2024-03-23T01:22:39;1.77;;;1.63;;
7410;SDS011;3747;48.628;9.058;2024-03-23T01:25:06;2.90;;;2.27;;
7410;SDS011;3747;48.628;9.058;2024-03-23T01:27:32;2.00;;;1.90;;
7410;SDS011;3747;48.628;9.058;2024-03-23T01:30:00;4.20;;;1.60;;
7410;SDS011;3747;48.628;9.058;2024-03-23T01:32:26;2.30;;;2.10;;
7410;SDS011;3747;48.628;9.058;2024-03-23T01:34:53;1.90;;;1.77;;
7410;SDS011;3747;48.628;9.058;2024-03-23T01:37:19;1.83;;;1.70;;
7410;SDS011;3747;48.628;9.058;2024-03-23T01:39:45;1.80;;;1.70;;
7410;SDS011;3747;48.628;9.058;2024-03-23T01:42:12;2.97;;;1.93;;
7410;SDS011;3747;48.628;9.058;2024-03-23T01:44:38;1.93;;;1.70;;
7410;SDS011;3747;48.628;9.058;2024-03-23T01:47:06;2.10;;;1.90;;
7410;SDS011;3747;48.628;9.058;2024-03-23T01:49:32;1.50;;;1.40;;
7410;SDS011;3747;48.628;9.058;2024-03-23T01:51:58;2.20;;;1.73;;
7410;SDS011;3747;48.628;9.058;2024-03-23T01:54:25;2.43;;;2.00;;
7410;SDS011;3747;48.628;9.058;2024-03-23T01:56:51;2.30;;;1.70;;
7410;SDS011;3747;48.628;9.058;2024-03-23T01:59:18;2.90;;;1.60;;
7410;SDS011;3747;48.628;9.058;2024-03-23T02:01:45;1.93;;;1.83;;
7410;SDS011;3747;48.628;9.058;2024-03-23T02:04:13;2.20;;;1.90;;
7410;SDS011;3747;48.628;9.058;2024-03-23T02:06:38;2.30;;;1.80;;
7410;SDS011;3747;48.628;9.058;2024-03-23T02:09:05;3.10;;;1.70;;
7410;SDS011;3747;48.628;9.058;2024-03-23T02:11:31;2.03;;;1.90;;
7410;SDS011;3747;48.628;9.058;2024-03-23T02:13:57;2.13;;;1.93;;
7410;SDS011;3747;48.628;9.058;2024-03-23T02:16:23;1.77;;;1.57;;
7410;SDS011;3747;48.628;9.058;2024-03-23T02:18:50;3.50;;;1.67;;
7410;SDS011;3747;48.628;9.058;2024-03-23T02:21:17;1.60;;;1.50;;
7410;SDS011;3747;48.628;9.058;2024-03-23T02:23:45;2.20;;;2.00;;
7410;SDS011;3747;48.628;9.058;2024-03-23T02:26:10;2.50;;;1.83;;
7410;SDS011;3747;48.628;9.058;2024-03-23T02:28:38;2.23;;;1.87;;
7410;SDS011;3747;48.628;9.058;2024-03-23T02:31:04;4.83;;;2.03;;
7410;SDS011;3747;48.628;9.058;2024-03-23T02:33:30;1.97;;;1.53;;
7410;SDS011;3747;48.628;9.058;2024-03-23T02:35:57;2.83;;;1.83;;
7410;SDS011;3747;48.628;9.058;2024-03-23T02:38:23;3.03;;;1.83;;
7410;SDS011;3747;48.628;9.058;2024-03-23T02:40:50;2.13;;;1.67;;
7410;SDS011;3747;48.628;9.058;2024-03-23T02:43:17;4.97;;;1.80;;
7410;SDS011;3747;48.628;9.058;2024-03-23T02:45:43;4.10;;;1.93;;
7410;SDS011;3747;48.628;9.058;2024-03-23T02:48:09;2.20;;;2.00;;
7410;SDS011;3747;48.628;9.058;2024-03-23T02:50:35;2.97;;;2.13;;
7410;SDS011;3747;48.628;9.058;2024-03-23T02:53:02;2.60;;;2.07;;
7410;SDS011;3747;48.628;9.058;2024-03-23T02:55:29;2.30;;;1.73;;
7410;SDS011;3747;48.628;9.058;2024-03-23T02:57:57;2.00;;;1.77;;
7410;SDS011;3747;48.628;9.058;2024-03-23T03:00:26;2.17;;;1.87;;
7410;SDS011;3747;48.628;9.058;2024-03-23T03:02:53;3.13;;;1.90;;
7410;SDS011;3747;48.628;9.058;2024-03-23T03:05:19;2.30;;;1.90;;
7410;SDS011;3747;48.628;9.058;2024-03-23T03:07:46;3.13;;;2.07;;
7410;SDS011;3747;48.628;9.058;2024-03-23T03:10:11;1.83;;;1.70;;
7410;SDS011;3747;48.628;9.058;2024-03-23T03:12:38;4.37;;;1.90;;
7410;SDS011;3747;48.628;9.058;2024-03-23T03:15:06;2.67;;;1.83;;
7410;SDS011;3747;48.628;9.058;2024-03-23T03:17:34;4.73;;;2.30;;
7410;SDS011;3747;48.628;9.058;2024-03-23T03:20:00;3.50;;;2.20;;
7410;SDS011;3747;48.628;9.058;2024-03-23T03:22:29;3.20;;;2.00;;
7410;SDS011;3747;48.628;9.058;2024-03-23T03:24:55;2.20;;;2.00;;
7410;SDS011;3747;48.628;9.058;2024-03-23T03:27:22;2.93;;;2.00;;
7410;SDS011;3747;48.628;9.058;2024-03-23T03:29:48;2.67;;;2.47;;
7410;SDS011;3747;48.628;9.058;2024-03-23T03:32:16;2.73;;;2.40;;
7410;SDS011;3747;48.628;9.058;2024-03-23T03:34:41;2.40;;;2.20;;
7410;SDS011;3747;48.628;9.058;2024-03-23T03:37:08;3.53;;;2.37;;
7410;SDS011;3747;48.628;9.058;2024-03-23T03:39:34;2.93;;;2.30;;
7410;SDS011;3747;48.628;9.058;2024-03-23T03:42:02;2.67;;;2.30;;
7410;SDS011;3747;48.628;9.058;2024-03-23T03:44:31;2.43;;;2.07;;
7410;SDS011;3747;48.628;9.058;2024-03-23T03:46:58;2.47;;;2.27;;
7410;SDS011;3747;48.628;9.058;2024-03-23T03:49:25;4.07;;;2.40;;
7410;SDS011;3747;48.628;9.058;2024-03-23T03:51:52;2.70;;;2.50;;
7410;SDS011;3747;48.628;9.058;2024-03-23T03:54:17;2.80;;;2.50;;
7410;SDS011;3747;48.628;9.058;2024-03-23T03:56:44;3.37;;;2.17;;
7410;SDS011;3747;48.628;9.058;2024-03-23T03:59:10;2.40;;;2.20;;
7410;SDS011;3747;48.628;9.058;2024-03-23T04:01:36;3.23;;;2.10;;
7410;SDS011;3747;48.628;9.058;2024-03-23T04:04:02;4.23;;;2.50;;
7410;SDS011;3747;48.628;9.058;2024-03-23T04:06:30;4.03;;;2.20;;
7410;SDS011;3747;48.628;9.058;2024-03-23T04:08:56;5.23;;;2.40;;
7410;SDS011;3747;48.628;9.058;2024-03-23T04:11:22;4.07;;;2.30;;
7410;SDS011;3747;48.628;9.058;2024-03-23T04:13:48;2.90;;;2.20;;
7410;SDS011;3747;48.628;9.058;2024-03-23T04:16:24;4.07;;;2.07;;
7410;SDS011;3747;48.628;9.058;2024-03-23T04:18:50;2.70;;;2.23;;
7410;SDS011;3747;48.628;9.058;2024-03-23T04:21:16;4.80;;;1.90;;
7410;SDS011;3747;48.628;9.058;2024-03-23T04:23:43;6.10;;;2.37;;
7410;SDS011;3747;48.628;9.058;2024-03-23T04:26:10;4.00;;;2.43;;
7410;SDS011;3747;48.628;9.058;2024-03-23T04:28:36;2.10;;;1.90;;
7410;SDS011;3747;48.628;9.058;2024-03-23T04:31:03;3.03;;;2.00;;
7410;SDS011;3747;48.628;9.058;2024-03-23T04:33:29;2.67;;;2.23;;
7410;SDS011;3747;48.628;9.058;2024-03-23T04:35:55;2.03;;;1.77;;
7410;SDS011;3747;48.628;9.058;2024-03-23T04:38:21;3.30;;;1.93;;
7410;SDS011;3747;48.628;9.058;2024-03-23T04:40:54;3.90;;;2.97;;
7410;SDS011;3747;48.628;9.058;2024-03-23T04:43:21;3.70;;;2.40;;
7410;SDS011;3747;48.628;9.058;2024-03-23T04:45:48;2.33;;;2.13;;
7410;SDS011;3747;48.628;9.058;2024-03-23T04:48:15;3.80;;;2.30;;
7410;SDS011;3747;48.628;9.058;2024-03-23T04:50:41;2.13;;;1.93;;
7410;SDS011;3747;48.628;9.058;2024-03-23T04:53:08;2.20;;;2.00;;
7410;SDS011;3747;48.628;9.058;2024-03-23T04:55:35;2.97;;;2.40;;
7410;SDS011;3747;48.628;9.058;2024-03-23T04:58:03;3.07;;;2.83;;
7410;SDS011;3747;48.628;9.058;2024-03-23T05:00:29;3.30;;;3.00;;
7410;SDS011;3747;48.628;9.058;2024-03-23T05:02:56;4.17;;;3.17;;
7410;SDS011;3747;48.628;9.058;2024-03-23T05:05:21;5.73;;;3.77;;
7410;SDS011;3747;48.628;9.058;2024-03-23T05:07:48;4.30;;;3.50;;
7410;SDS011;3747;48.628;9.058;2024-03-23T05:10:14;5.67;;;3.40;;
7410;SDS011;3747;48.628;9.058;2024-03-23T05:12:41;5.50;;;3.97;;
7410;SDS011;3747;48.628;9.058;2024-03-23T05:15:11;8.00;;;4.30;;
7410;SDS011;3747;48.628;9.058;2024-03-23T05:17:37;6.13;;;4.87;;
7410;SDS011;3747;48.628;9.058;2024-03-23T05:20:05;7.17;;;4.33;;
7410;SDS011;3747;48.628;9.058;2024-03-23T05:22:34;6.70;;;6.00;;
7410;SDS011;3747;48.628;9.058;2024-03-23T05:25:01;9.67;;;6.53;;
7410;SDS011;3747;48.628;9.058;2024-03-23T05:27:29;7.07;;;6.33;;
7410;SDS011;3747;48.628;9.058;2024-03-23T05:29:56;8.83;;;7.60;;
7410;SDS011;3747;48.628;9.058;2024-03-23T05:32:23;11.47;;;9.07;;
7410;SDS011;3747;48.628;9.058;2024-03-23T05:34:50;13.40;;;9.67;;
7410;SDS011;3747;48.628;9.058;2024-03-23T05:37:20;12.10;;;8.77;;
7410;SDS011;3747;48.628;9.058;2024-03-23T05:39:47;10.97;;;9.30;;
7410;SDS011;3747;48.628;9.058;2024-03-23T05:42:14;12.87;;;9.23;;
7410;SDS011;3747;48.628;9.058;2024-03-23T05:44:42;13.67;;;8.53;;
7410;SDS011;3747;48.628;9.058;2024-03-23T05:47:08;9.63;;;6.97;;
7410;SDS011;3747;48.628;9.058;2024-03-23T05:49:37;11.93;;;7.87;;
7410;SDS011;3747;48.628;9.058;2024-03-23T05:52:02;8.50;;;7.00;;
7410;SDS011;3747;48.628;9.058;2024-03-23T05:54:29;9.73;;;8.07;;
7410;SDS011;3747;48.628;9.058;2024-03-23T05:56:55;10.57;;;7.13;;
7410;SDS011;3747;48.628;9.058;2024-03-23T05:59:22;9.57;;;6.67;;
7410;SDS011;3747;48.628;9.058;2024-03-23T06:01:48;9.60;;;7.07;;
7410;SDS011;3747;48.628;9.058;2024-03-23T06:04:15;6.57;;;5.17;;
7410;SDS011;3747;48.628;9.058;2024-03-23T06:06:42;6.17;;;4.20;;
7410;SDS011;3747;48.628;9.058;2024-03-23T06:09:08;5.50;;;3.60;;
7410;SDS011;3747;48.628;9.058;2024-03-23T06:11:35;4.93;;;3.90;;
7410;SDS011;3747;48.628;9.058;2024-03-23T06:14:01;5.33;;;3.00;;
7410;SDS011;3747;48.628;9.058;2024-03-23T06:16:27;3.43;;;2.63;;
7410;SDS011;3747;48.628;9.058;2024-03-23T06:18:53;4.03;;;2.67;;
7410;SDS011;3747;48.628;9.058;2024-03-23T06:21:20;2.27;;;2.07;;
7410;SDS011;3747;48.628;9.058;2024-03-23T06:23:51;3.40;;;2.30;;
7410;SDS011;3747;48.628;9.058;2024-03-23T06:26:17;2.73;;;1.77;;
7410;SDS011;3747;48.628;9.058;2024-03-23T06:28:43;1.67;;;1.57;;
7410;SDS011;3747;48.628;9.058;2024-03-23T06:31:10;1.80;;;1.40;;
7410;SDS011;3747;48.628;9.058;2024-03-23T06:33:36;1.50;;;1.33;;
7410;SDS011;3747;48.628;9.058;2024-03-23T06:36:03;1.23;;;1.13;;
7410;SDS011;3747;48.628;9.058;2024-03-23T06:38:30;1.60;;;1.30;;
7410;SDS011;3747;48.628;9.058;2024-03-23T06:40:58;1.37;;;1.20;;
7410;SDS011;3747;48.628;9.058;2024-03-23T06:43:23;2.10;;;1.60;;
7410;SDS011;3747;48.628;9.058;2024-03-23T06:45:52;1.50;;;1.40;;
7410;SDS011;3747;48.628;9.058;2024-03-23T06:48:18;1.90;;;1.70;;
7410;SDS011;3747;48.628;9.058;2024-03-23T06:50:44;1.83;;;1.57;;
7410;SDS011;3747;48.628;9.058;2024-03-23T06:53:11;2.10;;;1.60;;
7410;SDS011;3747;48.628;9.058;2024-03-23T06:55:38;1.73;;;1.50;;
7410;SDS011;3747;48.628;9.058;2024-03-23T06:58:05;1.70;;;1.30;;
7410;SDS011;3747;48.628;9.058;2024-03-23T07:00:31;0.87;;;0.83;;
7410;SDS011;3747;48.628;9.058;2024-03-23T07:02:57;0.50;;;0.50;;
7410;SDS011;3747;48.628;9.058;2024-03-23T07:05:24;1.40;;;0.50;;
7410;SDS011;3747;48.628;9.058;2024-03-23T07:07:50;0.50;;;0.47;;
7410;SDS011;3747;48.628;9.058;2024-03-23T07:10:16;0.40;;;0.40;;
7410;SDS011;3747;48.628;9.058;2024-03-23T07:12:42;1.60;;;0.50;;
7410;SDS011;3747;48.628;9.058;2024-03-23T07:15:10;0.73;;;0.50;;
7410;SDS011;3747;48.628;9.058;2024-03-23T07:17:36;0.50;;;0.50;;
7410;SDS011;3747;48.628;9.058;2024-03-23T07:20:03;0.40;;;0.40;;
7410;SDS011;3747;48.628;9.058;2024-03-23T07:22:29;0.40;;;0.40;;
7410;SDS011;3747;48.628;9.058;2024-03-23T07:24:56;0.20;;;0.20;;
7410;SDS011;3747;48.628;9.058;2024-03-23T07:27:23;0.40;;;0.30;;
7410;SDS011;3747;48.628;9.058;2024-03-23T07:29:49;0.10;;;0.10;;
7410;SDS011;3747;48.628;9.058;2024-03-23T07:32:17;0.20;;;0.20;;
7410;SDS011;3747;48.628;9.058;2024-03-23T07:34:42;0.30;;;0.20;;
7410;SDS011;3747;48.628;9.058;2024-03-23T07:37:10;0.30;;;0.30;;
7410;SDS011;3747;48.628;9.058;2024-03-23T07:39:36;0.63;;;0.20;;
7410;SDS011;3747;48.628;9.058;2024-03-23T07:42:02;0.20;;;0.17;;
7410;SDS011;3747;48.628;9.058;2024-03-23T07:44:28;0.17;;;0.17;;
7410;SDS011;3747;48.628;9.058;2024-03-23T07:46:55;0.40;;;0.30;;
7410;SDS011;3747;48.628;9.058;2024-03-23T07:49:22;0.20;;;0.20;;
7410;SDS011;3747;48.628;9.058;2024-03-23T07:51:49;0.10;;;0.10;;
7410;SDS011;3747;48.628;9.058;2024-03-23T07:54:15;0.20;;;0.20;;
7410;SDS011;3747;48.628;9.058;2024-03-23T07:56:42;0.20;;;0.20;;
7410;SDS011;3747;48.628;9.058;2024-03-23T07:59:07;0.77;;;0.10;;
7410;SDS011;3747;48.628;9.058;2024-03-23T08:01:34;0.20;;;0.20;;
7410;SDS011;3747;48.628;9.058;2024-03-23T08:04:00;0.20;;;0.20;;
7410;SDS011;3747;48.628;9.058;2024-03-23T08:06:28;0.30;;;0.30;;
7410;SDS011;3747;48.628;9.058;2024-03-23T08:08:54;0.20;;;0.20;;
7410;SDS011;3747;48.628;9.058;2024-03-23T08:11:25;0.40;;;0.30;;
7410;SDS011;3747;48.628;9.058;2024-03-23T08:13:51;0.30;;;0.20;;
7410;SDS011;3747;48.628;9.058;2024-03-23T08:16:18;1.40;;;0.20;;
7410;SDS011;3747;48.628;9.058;2024-03-23T08:18:44;0.30;;;0.30;;
7410;SDS011;3747;48.628;9.058;2024-03-23T08:21:11;0.60;;;0.20;;
7410;SDS011;3747;48.628;9.058;2024-03-23T08:23:38;0.27;;;0.20;;
7410;SDS011;3747;48.628;9.058;2024-03-23T08:26:05;0.30;;;0.30;;
7410;SDS011;3747;48.628;9.058;2024-03-23T08:28:32;1.00;;;0.30;;
7410;SDS011;3747;48.628;9.058;2024-03-23T08:31:00;0.40;;;0.40;;
7410;SDS011;3747;48.628;9.058;2024-03-23T08:33:27;0.93;;;0.50;;
7410;SDS011;3747;48.628;9.058;2024-03-23T08:35:54;0.60;;;0.50;;
7410;SDS011;3747;48.628;9.058;2024-03-23T08:38:20;0.50;;;0.50;;
7410;SDS011;3747;48.628;9.058;2024-03-23T08:40:53;2.20;;;0.80;;
7410;SDS011;3747;48.628;9.058;2024-03-23T08:43:21;1.03;;;0.77;;
7410;SDS011;3747;48.628;9.058;2024-03-23T08:45:53;1.60;;;0.87;;
7410;SDS011;3747;48.628;9.058;2024-03-23T08:48:29;2.27;;;1.23;;
7410;SDS011;3747;48.628;9.058;2024-03-23T08:50:59;1.17;;;0.80;;
7410;SDS011;3747;48.628;9.058;2024-03-23T08:53:27;1.20;;;1.00;;
7410;SDS011;3747;48.628;9.058;2024-03-23T08:55:57;1.13;;;0.80;;
7410;SDS011;3747;48.628;9.058;2024-03-23T08:58:24;1.83;;;0.80;;
7410;SDS011;3747;48.628;9.058;2024-03-23T09:00:51;2.33;;;1.30;;
7410;SDS011;3747;48.628;9.058;2024-03-23T09:03:18;1.97;;;1.53;;
7410;SDS011;3747;48.628;9.058;2024-03-23T09:05:44;4.63;;;2.00;;
7410;SDS011;3747;48.628;9.058;2024-03-23T09:08:10;2.13;;;1.90;;
7410;SDS011;3747;48.628;9.058;2024-03-23T09:10:43;4.77;;;1.50;;
7410;SDS011;3747;48.628;9.058;2024-03-23T09:13:10;2.40;;;1.90;;
7410;SDS011;3747;48.628;9.058;2024-03-23T09:18:39;3.47;;;2.10;;
7410;SDS011;3747;48.628;9.058;2024-03-23T09:21:10;4.60;;;2.13;;
7410;SDS011;3747;48.628;9.058;2024-03-23T09:23:38;3.10;;;2.27;;
7410;SDS011;3747;48.628;9.058;2024-03-23T09:26:05;3.57;;;2.60;;
7410;SDS011;3747;48.628;9.058;2024-03-23T09:28:33;4.37;;;2.10;;
7410;SDS011;3747;48.628;9.058;2024-03-23T09:31:02;4.67;;;2.60;;
7410;SDS011;3747;48.628;9.058;2024-03-23T09:33:28;6.10;;;2.67;;
7410;SDS011;3747;48.628;9.058;2024-03-23T09:35:55;3.57;;;2.60;;
7410;SDS011;3747;48.628;9.058;2024-03-23T09:38:22;4.23;;;2.90;;
7410;SDS011;3747;48.628;9.058;2024-03-23T09:40:49;3.17;;;2.87;;
7410;SDS011;3747;48.628;9.058;2024-03-23T09:43:18;5.47;;;2.67;;
7410;SDS011;3747;48.628;9.058;2024-03-23T09:45:47;7.07;;;2.90;;
7410;SDS011;3747;48.628;9.058;2024-03-23T09:48:21;2.80;;;2.50;;
7410;SDS011;3747;48.628;9.058;2024-03-23T09:50:48;7.20;;;2.47;;
7410;SDS011;3747;48.628;9.058;2024-03-23T09:53:22;5.43;;;2.90;;
7410;SDS011;3747;48.628;9.058;2024-03-23T09:55:49;4.53;;;2.90;;
7410;SDS011;3747;48.628;9.058;2024-03-23T09:58:16;4.70;;;2.60;;
7410;SDS011;3747;48.628;9.058;2024-03-23T10:00:43;5.23;;;2.63;;
7410;SDS011;3747;48.628;9.058;2024-03-23T10:06:12;4.60;;;2.23;;
7410;SDS011;3747;48.628;9.058;2024-03-23T10:08:38;3.60;;;2.93;;
7410;SDS011;3747;48.628;9.058;2024-03-23T10:11:14;5.27;;;2.40;;
7410;SDS011;3747;48.628;9.058;2024-03-23T10:13:41;4.87;;;2.63;;
7410;SDS011;3747;48.628;9.058;2024-03-23T10:16:09;5.33;;;3.23;;
7410;SDS011;3747;48.628;9.058;2024-03-23T10:18:42;3.00;;;2.70;;
7410;SDS011;3747;48.628;9.058;2024-03-23T10:21:10;5.20;;;2.70;;
7410;SDS011;3747;48.628;9.058;2024-03-23T10:23:37;5.20;;;2.87;;
7410;SDS011;3747;48.628;9.058;2024-03-23T10:26:12;4.60;;;2.93;;
7410;SDS011;3747;48.628;9.058;2024-03-23T10:28:43;5.30;;;2.63;;
7410;SDS011;3747;48.628;9.058;2024-03-23T10:31:22;6.17;;;2.83;;
7410;SDS011;3747;48.628;9.058;2024-03-23T10:33:48;4.43;;;3.13;;
7410;SDS011;3747;48.628;9.058;2024-03-23T10:36:16;5.53;;;3.27;;
7410;SDS011;3747;48.628;9.058;2024-03-23T10:38:45;4.47;;;2.80;;
7410;SDS011;3747;48.628;9.058;2024-03-23T10:41:12;6.27;;;2.47;;
7410;SDS011;3747;48.628;9.058;2024-03-23T10:43:38;4.00;;;3.00;;
7410;SDS011;3747;48.628;9.058;2024-03-23T10:46:05;6.40;;;3.33;;
7410;SDS011;3747;48.628;9.058;2024-03-23T10:48:31;2.90;;;2.00;;
7410;SDS011;3747;48.628;9.058;2024-03-23T10:50:58;1.47;;;1.37;;
7410;SDS011;3747;48.628;9.058;2024-03-23T10:53:34;3.10;;;1.10;;
7410;SDS011;3747;48.628;9.058;2024-03-23T10:56:02;1.70;;;0.93;;
7410;SDS011;3747;48.628;9.058;2024-03-23T10:58:30;2.97;;;1.50;;
7410;SDS011;3747;48.628;9.058;2024-03-23T11:00:59;5.47;;;1.93;;
7410;SDS011;3747;48.628;9.058;2024-03-23T11:03:34;4.07;;;2.17;;
7410;SDS011;3747;48.628;9.058;2024-03-23T11:06:02;2.53;;;1.57;;
7410;SDS011;3747;48.628;9.058;2024-03-23T11:08:33;2.63;;;1.60;;
7410;SDS011;3747;48.628;9.058;2024-03-23T11:11:13;2.00;;;1.80;;
7410;SDS011;3747;48.628;9.058;2024-03-23T11:13:41;5.17;;;2.20;;
7410;SDS011;3747;48.628;9.058;2024-03-23T11:16:15;9.87;;;2.73;;
7410;SDS011;3747;48.628;9.058;2024-03-23T11:18:41;3.70;;;2.03;;
7410;SDS011;3747;48.628;9.058;2024-03-23T11:21:09;2.40;;;1.73;;
7410;SDS011;3747;48.628;9.058;2024-03-23T11:23:36;6.57;;;1.93;;
7410;SDS011;3747;48.628;9.058;2024-03-23T11:26:06;3.13;;;1.73;;
7410;SDS011;3747;48.628;9.058;2024-03-23T11:28:32;4.60;;;1.80;;
7410;SDS011;3747;48.628;9.058;2024-03-23T11:30:59;1.50;;;1.33;;
7410;SDS011;3747;48.628;9.058;2024-03-23T11:33:25;4.50;;;1.80;;
7410;SDS011;3747;48.628;9.058;2024-03-23T11:35:51;2.17;;;1.43;;
7410;SDS011;3747;48.628;9.058;2024-03-23T11:38:17;2.63;;;1.87;;
7410;SDS011;3747;48.628;9.058;2024-03-23T11:40:46;3.47;;;1.70;;
7410;SDS011;3747;48.628;9.058;2024-03-23T11:43:13;3.60;;;1.40;;
7410;SDS011;3747;48.628;9.058;2024-03-23T11:45:42;3.63;;;1.23;;
7410;SDS011;3747;48.628;9.058;2024-03-23T11:48:09;5.77;;;2.30;;
7410;SDS011;3747;48.628;9.058;2024-03-23T11:50:37;4.07;;;2.27;;
7410;SDS011;3747;48.628;9.058;2024-03-23T11:53:11;1.73;;;1.30;;
7410;SDS011;3747;48.628;9.058;2024-03-23T11:55:41;3.13;;;1.17;;
7410;SDS011;3747;48.628;9.058;2024-03-23T11:58:09;6.00;;;1.90;;
7410;SDS011;3747;48.628;9.058;2024-03-23T12:00:36;7.40;;;3.37;;
7410;SDS011;3747;48.628;9.058;2024-03-23T12:03:02;5.90;;;1.57;;
7410;SDS011;3747;48.628;9.058;2024-03-23T12:05:29;5.27;;;1.60;;
7410;SDS011;3747;48.628;9.058;2024-03-23T12:07:55;5.17;;;1.27;;
7410;SDS011;3747;48.628;9.058;2024-03-23T12:10:42;5.20;;;1.27;;
7410;SDS011;3747;48.628;9.058;2024-03-23T12:13:10;2.77;;;1.67;;
7410;SDS011;3747;48.628;9.058;2024-03-23T12:15:37;6.13;;;1.73;;
7410;SDS011;3747;48.628;9.058;2024-03-23T12:18:06;5.90;;;1.60;;
7410;SDS011;3747;48.628;9.058;2024-03-23T12:20:33;4.63;;;1.63;;
7410;SDS011;3747;48.628;9.058;2024-03-23T12:23:04;3.83;;;2.03;;
7410;SDS011;3747;48.628;9.058;2024-03-23T12:25:32;6.20;;;1.83;;
7410;SDS011;3747;48.628;9.058;2024-03-23T12:27:59;2.87;;;1.60;;
7410;SDS011;3747;48.628;9.058;2024-03-23T12:30:27;5.07;;;1.50;;
7410;SDS011;3747;48.628;9.058;2024-03-23T12:32:53;3.90;;;1.53;;
7410;SDS011;3747;48.628;9.058;2024-03-23T12:35:19;6.80;;;2.00;;
7410;SDS011;3747;48.628;9.058;2024-03-23T12:37:45;6.77;;;2.27;;
7410;SDS011;3747;48.628;9.058;2024-03-23T12:40:12;3.57;;;1.53;;
7410;SDS011;3747;48.628;9.058;2024-03-23T12:42:38;5.27;;;2.20;;
7410;SDS011;3747;48.628;9.058;2024-03-23T12:45:05;6.40;;;2.33;;
7410;SDS011;3747;48.628;9.058;2024-03-23T12:47:33;3.50;;;1.67;;
7410;SDS011;3747;48.628;9.058;2024-03-23T12:49:59;6.27;;;1.97;;
7410;SDS011;3747;48.628;9.058;2024-03-23T12:52:25;3.33;;;2.00;;
7410;SDS011;3747;48.628;9.058;2024-03-23T12:54:53;3.10;;;2.07;;
7410;SDS011;3747;48.628;9.058;2024-03-23T12:57:21;6.50;;;2.17;;
7410;SDS011;3747;48.628;9.058;2024-03-23T12:59:48;3.40;;;2.10;;
7410;SDS011;3747;48.628;9.058;2024-03-23T13:02:16;3.57;;;2.13;;
7410;SDS011;3747;48.628;9.058;2024-03-23T13:04:45;3.80;;;1.60;;
7410;SDS011;3747;48.628;9.058;2024-03-23T13:07:11;5.10;;;1.67;;
7410;SDS011;3747;48.628;9.058;2024-03-23T13:09:38;5.03;;;1.73;;
7410;SDS011;3747;48.628;9.058;2024-03-23T13:12:04;3.10;;;1.53;;
7410;SDS011;3747;48.628;9.058;2024-03-23T13:14:31;3.13;;;0.97;;
7410;SDS011;3747;48.628;9.058;2024-03-23T13:16:57;0.93;;;0.63;;
7410;SDS011;3747;48.628;9.058;2024-03-23T13:19:24;2.57;;;0.90;;
7410;SDS011;3747;48.628;9.058;2024-03-23T13:21:53;3.27;;;1.60;;
7410;SDS011;3747;48.628;9.058;2024-03-23T13:24:21;2.27;;;1.33;;
7410;SDS011;3747;48.628;9.058;2024-03-23T13:26:48;1.23;;;0.50;;
7410;SDS011;3747;48.628;9.058;2024-03-23T13:29:16;2.40;;;0.80;;
7410;SDS011;3747;48.628;9.058;2024-03-23T13:31:41;0.60;;;0.50;;
7410;SDS011;3747;48.628;9.058;2024-03-23T13:34:08;1.20;;;0.70;;
7410;SDS011;3747;48.628;9.058;2024-03-23T13:36:34;1.63;;;1.00;;
7410;SDS011;3747;48.628;9.058;2024-03-23T13:39:02;2.60;;;1.00;;
7410;SDS011;3747;48.628;9.058;2024-03-23T13:41:31;3.07;;;1.43;;
7410;SDS011;3747;48.628;9.058;2024-03-23T13:43:58;2.73;;;1.07;;
7410;SDS011;3747;48.628;9.058;2024-03-23T13:46:23;1.27;;;0.80;;
7410;SDS011;3747;48.628;9.058;2024-03-23T13:48:50;2.33;;;0.70;;
7410;SDS011;3747;48.628;9.058;2024-03-23T13:51:16;1.63;;;1.00;;
7410;SDS011;3747;48.628;9.058;2024-03-23T13:53:57;3.90;;;0.90;;
7410;SDS011;3747;48.628;9.058;2024-03-23T13:56:27;2.77;;;1.03;;
7410;SDS011;3747;48.628;9.058;2024-03-23T13:58:54;2.53;;;0.90;;
7410;SDS011;3747;48.628;9.058;2024-03-23T14:01:20;1.93;;;0.90;;
7410;SDS011;3747;48.628;9.058;2024-03-23T14:07:03;2.87;;;0.90;;
7410;SDS011;3747;48.628;9.058;2024-03-23T14:09:30;3.40;;;1.23;;
7410;SDS011;3747;48.628;9.058;2024-03-23T14:15:05;2.47;;;1.10;;
7410;SDS011;3747;48.628;9.058;2024-03-23T14:17:31;2.30;;;1.10;;
7410;SDS011;3747;48.628;9.058;2024-03-23T14:22:36;5.80;;;1.20;;
7410;SDS011;3747;48.628;9.058;2024-03-23T14:25:03;2.27;;;1.40;;
7410;SDS011;3747;48.628;9.058;2024-03-23T14:27:31;4.40;;;1.17;;
7410;SDS011;3747;48.628;9.058;2024-03-23T14:29:58;3.07;;;1.07;;
7410;SDS011;3747;48.628;9.058;2024-03-23T14:32:40;2.10;;;1.23;;
7410;SDS011;3747;48.628;9.058;2024-03-23T14:35:06;3.50;;;1.70;;
7410;SDS011;3747;48.628;9.058;2024-03-23T14:37:35;2.77;;;1.20;;
7410;SDS011;3747;48.628;9.058;2024-03-23T14:40:03;2.80;;;1.40;;
7410;SDS011;3747;48.628;9.058;2024-03-23T14:42:31;3.17;;;1.10;;
7410;SDS011;3747;48.628;9.058;2024-03-23T14:44:58;1.97;;;1.07;;
7410;SDS011;3747;48.628;9.058;2024-03-23T14:47:24;2.30;;;1.17;;
7410;SDS011;3747;48.628;9.058;2024-03-23T14:49:51;2.83;;;1.00;;
7410;SDS011;3747;48.628;9.058;2024-03-23T14:52:29;1.83;;;0.90;;
7410;SDS011;3747;48.628;9.058;2024-03-23T14:55:11;4.40;;;1.53;;
7410;SDS011;3747;48.628;9.058;2024-03-23T14:57:54;1.23;;;0.60;;
7410;SDS011;3747;48.628;9.058;2024-03-23T15:00:20;1.83;;;0.90;;
7410;SDS011;3747;48.628;9.058;2024-03-23T15:02:46;3.23;;;1.27;;
7410;SDS011;3747;48.628;9.058;2024-03-23T15:05:13;2.00;;;1.37;;
7410;SDS011;3747;48.628;9.058;2024-03-23T15:07:39;2.17;;;0.83;;
7410;SDS011;3747;48.628;9.058;2024-03-23T15:10:07;1.17;;;1.07;;
7410;SDS011;3747;48.628;9.058;2024-03-23T15:12:35;3.40;;;1.03;;
7410;SDS011;3747;48.628;9.058;2024-03-23T15:15:03;5.10;;;1.20;;
7410;SDS011;3747;48.628;9.058;2024-03-23T15:17:29;1.77;;;1.13;;
7410;SDS011;3747;48.628;9.058;2024-03-23T15:19:59;1.23;;;0.83;;
7410;SDS011;3747;48.628;9.058;2024-03-23T15:22:25;4.63;;;1.37;;
7410;SDS011;3747;48.628;9.058;2024-03-23T15:24:51;2.27;;;0.90;;
7410;SDS011;3747;48.628;9.058;2024-03-23T15:27:17;4.73;;;0.80;;
7410;SDS011;3747;48.628;9.058;2024-03-23T15:29:44;1.13;;;0.73;;
7410;SDS011;3747;48.628;9.058;2024-03-23T15:32:12;2.10;;;0.83;;
7410;SDS011;3747;48.628;9.058;2024-03-23T15:34:42;0.80;;;0.70;;
7410;SDS011;3747;48.628;9.058;2024-03-23T15:37:08;5.13;;;0.90;;
7410;SDS011;3747;48.628;9.058;2024-03-23T15:39:34;2.13;;;0.93;;
7410;SDS011;3747;48.628;9.058;2024-03-23T15:42:00;1.53;;;1.00;;
7410;SDS011;3747;48.628;9.058;2024-03-23T15:44:29;2.50;;;0.80;;
7410;SDS011;3747;48.628;9.058;2024-03-23T15:46:54;1.63;;;0.97;;
7410;SDS011;3747;48.628;9.058;2024-03-23T15:49:22;1.57;;;0.90;;
7410;SDS011;3747;48.628;9.058;2024-03-23T15:51:48;5.70;;;1.13;;
7410;SDS011;3747;48.628;9.058;2024-03-23T15:54:15;2.63;;;0.90;;
7410;SDS011;3747;48.628;9.058;2024-03-23T15:56:42;1.87;;;1.10;;
7410;SDS011;3747;48.628;9.058;2024-03-23T15:59:08;2.20;;;1.10;;
7410;SDS011;3747;48.628;9.058;2024-03-23T16:01:34;2.73;;;1.20;;
7410;SDS011;3747;48.628;9.058;2024-03-23T16:04:02;1.37;;;1.00;;
7410;SDS011;3747;48.628;9.058;2024-03-23T16:06:29;1.53;;;0.87;;
7410;SDS011;3747;48.628;9.058;2024-03-23T16:08:56;4.43;;;0.97;;
7410;SDS011;3747;48.628;9.058;2024-03-23T16:11:22;1.20;;;0.90;;
7410;SDS011;3747;48.628;9.058;2024-03-23T16:13:48;3.40;;;0.93;;
7410;SDS011;3747;48.628;9.058;2024-03-23T16:16:23;3.97;;;0.83;;
7410;SDS011;3747;48.628;9.058;2024-03-23T16:18:50;2.53;;;1.00;;
7410;SDS011;3747;48.628;9.058;2024-03-23T16:21:21;1.23;;;0.60;;
7410;SDS011;3747;48.628;9.058;2024-03-23T16:23:51;4.27;;;0.87;;
7410;SDS011;3747;48.628;9.058;2024-03-23T16:26:17;3.63;;;2.13;;